SAVY/PMY METAR and TAF weather

Enter ICAO airport designator
Station Type Date Time Source
SAVY METAR 2019/12/07 16:15 UTC NOAA

SAVY 071615Z 14020KT 9999 FEW030 SCT200 25/07 Q1009


Station Type Date Time Source
SAVY Decoded METAR 2019/12/07 16:15 UTC NOAA

Puerto Madryn, CHT, Argentina (SAVY) 42-45-33S 065-06-10W
Dec 07, 2019 - 11:15 AM EST / 2019.12.07 1615 UTC
Wind: from the SE (140 degrees) at 23 MPH (20 KT):0
Visibility: greater than 7 mile(s):0
Sky conditions: partly cloudy
Temperature: 77 F (25 C)
Dew Point: 44 F (7 C)
Relative Humidity: 31%
Pressure (altimeter): 29.80 in. Hg (1009 hPa)
ob: SAVY 071615Z 14020KT 9999 FEW030 SCT200 25/07 Q1009
cycle: 16

Station Type Date Time Source
SAVY TAF UTC NOAA

Error!

Example: see airport list